Time;durP1;ratioP1;P1;durP2;ratioP2;P2;SDS_P1;SDS_P2;PMS_P1;PMS_P2;Temp;Humidity;BMP_temperature;BMP_pressure;BME280_temperature;BME280_humidity;BME280_pressure;Samples;Min_cycle;Max_cycle;Signal;HPM_P1;HPM_P2
2022/05/02 00:01:08;;;;;;;1.17;1.10;;;;;;;;;;5029084;28;20345;-56
2022/05/02 00:03:55;;;;;;;1.27;1.17;;;;;;;;;;5031919;28;20243;-56
2022/05/02 00:06:42;;;;;;;1.50;1.40;;;;;;;;;;5032576;28;20294;-56
2022/05/02 00:09:29;;;;;;;1.30;1.20;;;;;;;;;;5028406;28;20247;-56
2022/05/02 00:12:16;;;;;;;1.50;1.40;;;;;;;;;;5028298;28;20213;-56
2022/05/02 00:15:05;;;;;;;1.67;1.57;;;;;;;;;;5030001;28;20372;-56
2022/05/02 00:17:58;;;;;;;2.23;1.70;;;;;;;;;;5028784;28;20241;-56
2022/05/02 00:20:45;;;;;;;1.40;1.30;;;;;;;;;;5029733;28;20206;-57
2022/05/02 00:23:32;;;;;;;1.50;1.40;;;;;;;;;;5028452;28;20268;-56
2022/05/02 00:26:19;;;;;;;1.50;1.40;;;;;;;;;;5034625;28;20287;-57
2022/05/02 00:29:06;;;;;;;1.40;1.30;;;;;;;;;;5027797;28;20243;-56
2022/05/02 00:31:54;;;;;;;1.30;1.20;;;;;;;;;;5028880;28;20213;-56
2022/05/02 00:34:41;;;;;;;1.40;1.30;;;;;;;;;;5029301;28;20700;-56
2022/05/02 00:37:29;;;;;;;1.60;1.50;;;;;;;;;;5031264;28;20263;-55
2022/05/02 00:40:17;;;;;;;1.57;1.20;;;;;;;;;;5034311;28;20291;-57
2022/05/02 00:43:05;;;;;;;1.27;1.17;;;;;;;;;;5028786;28;20584;-56
2022/05/02 00:45:52;;;;;;;1.50;1.40;;;;;;;;;;5031411;28;20348;-56
2022/05/02 00:48:40;;;;;;;1.50;1.40;;;;;;;;;;5031099;28;20321;-56
2022/05/02 00:51:27;;;;;;;1.27;1.17;;;;;;;;;;5030949;28;20723;-56
2022/05/02 00:54:14;;;;;;;1.27;1.17;;;;;;;;;;5033592;28;20228;-57
2022/05/02 00:57:01;;;;;;;1.53;1.43;;;;;;;;;;5029941;28;20212;-57
2022/05/02 00:59:48;;;;;;;1.57;1.40;;;;;;;;;;5030981;28;20282;-56
2022/05/02 01:02:36;;;;;;;1.73;1.50;;;;;;;;;;5034472;28;20209;-56
2022/05/02 01:05:24;;;;;;;1.80;1.13;;;;;;;;;;5030240;28;20211;-56
2022/05/02 01:08:10;;;;;;;2.07;1.30;;;;;;;;;;5028104;28;20209;-56
2022/05/02 01:10:58;;;;;;;1.27;1.27;;;;;;;;;;5028144;28;20209;-56
2022/05/02 01:13:46;;;;;;;1.40;1.30;;;;;;;;;;5029613;28;20259;-56
2022/05/02 01:16:33;;;;;;;1.03;1.00;;;;;;;;;;5027053;28;20217;-56
2022/05/02 01:19:22;;;;;;;1.17;1.07;;;;;;;;;;5029695;28;20227;-56
2022/05/02 01:22:11;;;;;;;1.20;1.10;;;;;;;;;;5034758;28;20321;-56
2022/05/02 01:24:58;;;;;;;1.23;1.20;;;;;;;;;;5028528;28;20688;-56
2022/05/02 01:27:45;;;;;;;1.33;1.23;;;;;;;;;;5028059;28;20724;-56
2022/05/02 01:30:32;;;;;;;1.30;1.20;;;;;;;;;;5027612;28;20217;-56
2022/05/02 01:33:19;;;;;;;1.20;1.20;;;;;;;;;;5031334;28;20285;-56
2022/05/02 01:36:06;;;;;;;1.30;1.20;;;;;;;;;;5031640;28;20292;-56
2022/05/02 01:38:54;;;;;;;1.33;1.23;;;;;;;;;;5030455;28;20287;-56
2022/05/02 01:41:41;;;;;;;1.70;1.60;;;;;;;;;;5033048;28;20350;-57
2022/05/02 01:44:28;;;;;;;1.37;1.30;;;;;;;;;;5039672;28;20316;-56
2022/05/02 01:47:15;;;;;;;1.47;1.30;;;;;;;;;;5037500;28;20695;-56
2022/05/02 01:50:02;;;;;;;1.17;1.10;;;;;;;;;;5031192;28;20219;-56
2022/05/02 01:52:49;;;;;;;1.33;1.13;;;;;;;;;;5037638;28;20698;-56
2022/05/02 01:55:37;;;;;;;1.30;1.20;;;;;;;;;;5028823;28;20335;-56
2022/05/02 01:58:24;;;;;;;1.47;1.17;;;;;;;;;;5035478;28;20363;-56
2022/05/02 02:01:11;;;;;;;1.20;1.20;;;;;;;;;;5031984;28;20831;-56
2022/05/02 02:04:00;;;;;;;1.60;1.50;;;;;;;;;;5032545;28;20228;-56
2022/05/02 02:06:46;;;;;;;1.30;1.20;;;;;;;;;;5038003;28;20359;-57
2022/05/02 02:09:33;;;;;;;1.20;1.20;;;;;;;;;;5032223;28;20259;-56
2022/05/02 02:12:21;;;;;;;1.20;1.20;;;;;;;;;;5032019;28;20784;-56
2022/05/02 02:15:14;;;;;;;0.93;0.93;;;;;;;;;;5031774;28;20283;-56
2022/05/02 02:18:01;;;;;;;1.20;1.20;;;;;;;;;;5036326;28;20219;-56
2022/05/02 02:20:49;;;;;;;1.10;1.10;;;;;;;;;;5031358;28;20209;-56
2022/05/02 02:23:37;;;;;;;0.90;0.90;;;;;;;;;;5031233;28;20319;-56
2022/05/02 02:26:24;;;;;;;1.13;1.10;;;;;;;;;;5031589;28;20287;-56
2022/05/02 02:29:13;;;;;;;1.27;1.17;;;;;;;;;;5030275;28;20582;-56
2022/05/02 02:31:59;;;;;;;1.07;1.07;;;;;;;;;;5030658;28;20781;-56
2022/05/02 02:34:46;;;;;;;1.10;1.00;;;;;;;;;;5035706;28;20582;-56
2022/05/02 02:37:33;;;;;;;1.10;1.10;;;;;;;;;;5029349;28;20737;-56
2022/05/02 02:40:21;;;;;;;1.77;1.33;;;;;;;;;;5031337;28;20318;-56
2022/05/02 02:43:09;;;;;;;1.27;0.90;;;;;;;;;;5034259;28;20248;-57
2022/05/02 02:45:57;;;;;;;1.03;0.93;;;;;;;;;;5041293;28;20201;-56
2022/05/02 02:48:44;;;;;;;1.13;1.07;;;;;;;;;;5029446;28;20319;-56
2022/05/02 02:51:31;;;;;;;1.00;1.00;;;;;;;;;;5030078;28;20316;-56
2022/05/02 02:54:19;;;;;;;1.33;0.90;;;;;;;;;;5032956;28;20288;-56
2022/05/02 02:57:06;;;;;;;0.80;0.80;;;;;;;;;;5033363;28;20290;-57
2022/05/02 02:59:53;;;;;;;1.30;1.10;;;;;;;;;;5027423;28;20354;-56
2022/05/02 03:02:43;;;;;;;1.03;1.03;;;;;;;;;;5031723;28;20341;-56
2022/05/02 03:08:36;;;;;;;1.27;1.20;;;;;;;;;;5032363;28;20248;-56
2022/05/02 03:11:23;;;;;;;1.00;0.90;;;;;;;;;;5031783;28;20268;-56
2022/05/02 03:14:10;;;;;;;1.20;1.17;;;;;;;;;;5028870;28;20217;-56
2022/05/02 03:16:57;;;;;;;0.97;0.97;;;;;;;;;;5029348;28;20388;-56
2022/05/02 03:19:45;;;;;;;0.90;0.90;;;;;;;;;;5032116;28;20209;-56
2022/05/02 03:22:32;;;;;;;0.90;0.90;;;;;;;;;;5029803;28;20213;-56
2022/05/02 03:25:19;;;;;;;1.10;1.10;;;;;;;;;;5036158;28;20205;-56
2022/05/02 03:28:06;;;;;;;0.90;0.90;;;;;;;;;;5030416;28;20355;-56
2022/05/02 03:30:54;;;;;;;1.23;1.00;;;;;;;;;;5029791;28;20692;-56
2022/05/02 03:33:41;;;;;;;0.90;0.90;;;;;;;;;;5029856;28;20234;-56
2022/05/02 03:36:29;;;;;;;0.90;0.90;;;;;;;;;;5029913;28;20663;-56
2022/05/02 03:39:16;;;;;;;0.90;0.90;;;;;;;;;;5033069;28;20739;-56
2022/05/02 03:42:03;;;;;;;0.87;0.87;;;;;;;;;;5032383;28;20748;-56
2022/05/02 03:44:51;;;;;;;0.87;0.87;;;;;;;;;;5033426;28;20212;-57
2022/05/02 03:47:38;;;;;;;0.87;0.80;;;;;;;;;;5029988;28;20265;-56
2022/05/02 03:50:25;;;;;;;0.90;0.90;;;;;;;;;;5030037;28;20205;-56
2022/05/02 03:53:15;;;;;;;0.97;0.97;;;;;;;;;;5030071;28;20226;-57
2022/05/02 03:56:02;;;;;;;0.80;0.80;;;;;;;;;;5032404;28;20303;-56
2022/05/02 03:58:49;;;;;;;1.33;1.23;;;;;;;;;;5037182;28;20702;-56
2022/05/02 04:01:39;;;;;;;0.80;0.80;;;;;;;;;;5032504;28;20264;-56
2022/05/02 04:04:26;;;;;;;0.90;0.90;;;;;;;;;;5032726;28;20299;-56
2022/05/02 04:07:13;;;;;;;1.60;0.90;;;;;;;;;;5029063;28;20269;-56
2022/05/02 04:10:01;;;;;;;0.80;0.80;;;;;;;;;;5033990;28;20221;-56
2022/05/02 04:12:48;;;;;;;0.90;0.90;;;;;;;;;;5031091;28;20416;-57
2022/05/02 04:15:35;;;;;;;1.00;1.00;;;;;;;;;;5030207;28;20351;-56
2022/05/02 04:18:22;;;;;;;0.83;0.83;;;;;;;;;;5032167;28;20248;-56
2022/05/02 04:21:09;;;;;;;0.87;0.87;;;;;;;;;;5030318;28;20678;-56
2022/05/02 04:23:56;;;;;;;1.07;1.07;;;;;;;;;;5028853;28;20246;-56
2022/05/02 04:26:45;;;;;;;0.73;0.73;;;;;;;;;;5031230;28;20296;-56
2022/05/02 04:29:31;;;;;;;1.13;1.13;;;;;;;;;;5029370;28;20203;-56
2022/05/02 04:32:19;;;;;;;1.20;1.20;;;;;;;;;;5030167;28;20358;-56
2022/05/02 04:35:06;;;;;;;0.90;0.90;;;;;;;;;;5028333;28;20230;-56
2022/05/02 04:37:53;;;;;;;1.47;0.97;;;;;;;;;;5026566;28;20480;-57
2022/05/02 04:40:40;;;;;;;0.90;0.90;;;;;;;;;;5032898;28;20305;-56
2022/05/02 04:43:28;;;;;;;1.00;1.00;;;;;;;;;;5030269;28;20751;-56
2022/05/02 04:46:15;;;;;;;1.00;1.00;;;;;;;;;;5027993;28;20694;-56
2022/05/02 04:49:02;;;;;;;1.00;0.90;;;;;;;;;;5028032;28;20234;-57
2022/05/02 04:51:49;;;;;;;1.20;1.20;;;;;;;;;;5028620;28;20314;-56
2022/05/02 04:54:36;;;;;;;1.20;1.20;;;;;;;;;;5029822;28;20261;-57
2022/05/02 04:57:23;;;;;;;0.90;0.90;;;;;;;;;;5030497;28;20243;-57
2022/05/02 05:00:16;;;;;;;1.27;1.17;;;;;;;;;;5027272;28;20214;-57
2022/05/02 05:03:04;;;;;;;1.70;1.60;;;;;;;;;;5030634;28;20215;-57
2022/05/02 05:05:51;;;;;;;1.57;1.47;;;;;;;;;;5025786;28;20290;-57
2022/05/02 05:08:38;;;;;;;1.27;1.27;;;;;;;;;;5028965;28;20263;-56
2022/05/02 05:11:36;;;;;;;1.20;1.20;;;;;;;;;;5033493;28;20252;-57
2022/05/02 05:17:54;;;;;;;1.00;1.00;;;;;;;;;;5026571;28;20204;-56
2022/05/02 05:20:50;;;;;;;2.07;1.13;;;;;;;;;;5028389;28;20694;-57
2022/05/02 05:23:52;;;;;;;1.27;1.17;;;;;;;;;;5029546;28;20213;-57
2022/05/02 05:26:47;;;;;;;1.30;1.20;;;;;;;;;;5031813;28;20204;-57
2022/05/02 05:29:39;;;;;;;0.93;0.93;;;;;;;;;;5028795;28;20687;-56
2022/05/02 05:32:30;;;;;;;1.20;1.20;;;;;;;;;;5031277;28;20241;-56
2022/05/02 05:35:24;;;;;;;1.10;1.10;;;;;;;;;;5030171;28;20235;-57
2022/05/02 05:38:18;;;;;;;1.27;1.17;;;;;;;;;;5027594;28;20218;-55
2022/05/02 05:41:15;;;;;;;1.30;1.20;;;;;;;;;;5026426;28;20207;-58
2022/05/02 05:44:18;;;;;;;1.17;1.17;;;;;;;;;;5028884;28;20289;-55
2022/05/02 05:47:17;;;;;;;1.30;1.20;;;;;;;;;;5027218;28;20208;-55
2022/05/02 05:50:11;;;;;;;0.97;0.97;;;;;;;;;;5029732;28;20201;-54
2022/05/02 05:53:07;;;;;;;1.20;1.20;;;;;;;;;;5033912;28;20288;-56
2022/05/02 05:56:12;;;;;;;0.90;0.90;;;;;;;;;;5029766;28;20231;-55
2022/05/02 05:59:08;;;;;;;1.87;0.90;;;;;;;;;;5029839;28;20806;-55
2022/05/02 06:02:06;;;;;;;1.30;1.00;;;;;;;;;;5031756;28;20212;-55
2022/05/02 06:04:57;;;;;;;1.27;1.27;;;;;;;;;;5027760;28;20222;-56
2022/05/02 06:07:46;;;;;;;1.23;1.13;;;;;;;;;;5028432;28;20207;-55
2022/05/02 06:10:36;;;;;;;0.95;0.95;;;;;;;;;;5029994;28;20623;-55
2022/05/02 06:13:28;;;;;;;0.80;0.80;;;;;;;;;;5026921;28;20604;-56
2022/05/02 06:19:25;;;;;;;0.98;0.98;;;;;;;;;;5031203;28;20202;-55
2022/05/02 06:22:13;;;;;;;1.00;1.00;;;;;;;;;;5028072;28;20272;-55
2022/05/02 06:25:02;;;;;;;1.08;1.08;;;;;;;;;;5028779;28;20203;-54
2022/05/02 06:27:51;;;;;;;0.88;0.88;;;;;;;;;;5033529;28;20263;-55
2022/05/02 06:30:40;;;;;;;1.00;1.00;;;;;;;;;;5029404;28;20306;-55
2022/05/02 06:33:27;;;;;;;0.90;0.90;;;;;;;;;;5029725;28;20211;-55
2022/05/02 06:36:36;;;;;;;0.80;0.80;;;;;;;;;;5031354;28;20256;-55
2022/05/02 06:39:39;;;;;;;0.90;0.90;;;;;;;;;;5029701;28;20201;-55
2022/05/02 06:42:31;;;;;;;0.95;0.95;;;;;;;;;;5034802;28;20215;-56
2022/05/02 06:45:31;;;;;;;0.90;0.90;;;;;;;;;;5032221;28;20204;-55
2022/05/02 06:48:28;;;;;;;0.82;0.82;;;;;;;;;;5031495;28;20248;-55
2022/05/02 06:51:21;;;;;;;0.73;0.73;;;;;;;;;;5031440;28;20388;-55
2022/05/02 06:54:27;;;;;;;1.90;0.80;;;;;;;;;;5028922;28;20259;-56
2022/05/02 06:57:26;;;;;;;0.73;0.73;;;;;;;;;;5029937;28;20688;-54
2022/05/02 07:00:17;;;;;;;0.80;0.80;;;;;;;;;;5033032;28;20300;-54
2022/05/02 07:03:31;;;;;;;0.93;0.93;;;;;;;;;;5030944;28;20235;-54
2022/05/02 07:06:29;;;;;;;0.60;0.60;;;;;;;;;;5030147;28;20243;-55
2022/05/02 07:09:23;;;;;;;0.60;0.60;;;;;;;;;;5034413;28;20346;-54
2022/05/02 07:12:17;;;;;;;0.70;0.70;;;;;;;;;;5036285;28;20219;-54
2022/05/02 07:15:06;;;;;;;0.60;0.60;;;;;;;;;;5029890;28;20323;-54
2022/05/02 07:18:05;;;;;;;0.65;0.60;;;;;;;;;;5030455;28;20209;-54
2022/05/02 07:21:06;;;;;;;0.50;0.50;;;;;;;;;;5030615;28;20209;-53
2022/05/02 07:24:03;;;;;;;0.60;0.60;;;;;;;;;;5030295;28;20254;-53
2022/05/02 07:27:01;;;;;;;0.70;0.70;;;;;;;;;;5027998;28;20238;-54
2022/05/02 07:29:50;;;;;;;1.38;0.43;;;;;;;;;;5030659;28;20275;-54
2022/05/02 07:32:37;;;;;;;0.50;0.50;;;;;;;;;;5029050;28;20211;-54
2022/05/02 07:35:25;;;;;;;0.45;0.45;;;;;;;;;;5030550;28;20286;-55
2022/05/02 07:38:14;;;;;;;0.60;0.60;;;;;;;;;;5030036;28;20201;-55
2022/05/02 07:44:09;;;;;;;0.63;0.50;;;;;;;;;;5031528;28;20255;-55
2022/05/02 07:47:00;;;;;;;0.93;0.68;;;;;;;;;;5029859;28;20204;-55
2022/05/02 07:49:48;;;;;;;0.50;0.50;;;;;;;;;;5028924;28;20212;-55
2022/05/02 07:52:39;;;;;;;0.50;0.50;;;;;;;;;;5029056;28;20232;-56
2022/05/02 07:55:31;;;;;;;0.50;0.50;;;;;;;;;;5029987;28;20204;-55
2022/05/02 07:58:20;;;;;;;0.82;0.80;;;;;;;;;;5031837;28;20216;-55
2022/05/02 08:01:07;;;;;;;0.65;0.60;;;;;;;;;;5028542;28;20911;-55
2022/05/02 08:03:54;;;;;;;0.98;0.43;;;;;;;;;;5027585;28;20680;-55
2022/05/02 08:06:52;;;;;;;0.40;0.40;;;;;;;;;;5030885;28;20288;-56
2022/05/02 08:10:14;;;;;;;0.32;0.32;;;;;;;;;;5029346;28;20318;-55
2022/05/02 08:13:16;;;;;;;1.00;0.70;;;;;;;;;;5030254;28;20239;-53
2022/05/02 08:16:06;;;;;;;0.60;0.50;;;;;;;;;;5028181;28;20278;-54
2022/05/02 08:19:10;;;;;;;1.90;0.60;;;;;;;;;;5028542;28;20208;-54
2022/05/02 08:28:32;;;;;;;0.43;0.43;;;;;;;;;;5030053;28;20205;-54
2022/05/02 08:31:21;;;;;;;1.38;0.50;;;;;;;;;;5028623;28;20691;-54
2022/05/02 08:34:20;;;;;;;0.57;0.50;;;;;;;;;;5029624;28;20219;-55
2022/05/02 08:37:20;;;;;;;0.55;0.55;;;;;;;;;;5033632;28;20307;-54
2022/05/02 08:40:14;;;;;;;0.38;0.38;;;;;;;;;;5029344;28;20215;-54
2022/05/02 08:43:47;;;;;;;0.38;0.32;;;;;;;;;;5029400;28;20351;-55
2022/05/02 08:47:06;;;;;;;0.38;0.38;;;;;;;;;;4993253;28;20252;-55
2022/05/02 08:50:10;;;;;;;0.40;0.40;;;;;;;;;;5012500;28;20288;-55
2022/05/02 08:53:26;;;;;;;0.73;0.40;;;;;;;;;;5011195;28;20259;-55
2022/05/02 08:56:53;;;;;;;0.30;0.30;;;;;;;;;;5010085;28;20693;-55
2022/05/02 09:00:07;;;;;;;1.05;0.30;;;;;;;;;;5000923;28;20232;-55
2022/05/02 09:03:32;;;;;;;0.38;0.32;;;;;;;;;;5010407;28;20559;-55
2022/05/02 09:06:52;;;;;;;0.65;0.40;;;;;;;;;;5008687;28;20308;-55
2022/05/02 09:09:52;;;;;;;0.30;0.30;;;;;;;;;;5010000;28;20292;-55
2022/05/02 09:13:06;;;;;;;0.65;0.32;;;;;;;;;;5010539;28;20240;-55
2022/05/02 09:16:25;;;;;;;0.35;0.25;;;;;;;;;;5010093;28;20213;-56
2022/05/02 09:19:40;;;;;;;0.30;0.30;;;;;;;;;;5011698;28;20240;-55
2022/05/02 09:23:22;;;;;;;0.50;0.28;;;;;;;;;;5019845;28;20831;-56
2022/05/02 09:26:49;;;;;;;0.43;0.40;;;;;;;;;;5012698;28;20260;-55
2022/05/02 09:30:14;;;;;;;0.95;0.45;;;;;;;;;;5012265;28;20293;-55
2022/05/02 09:33:11;;;;;;;0.63;0.40;;;;;;;;;;5011436;28;20212;-55
2022/05/02 09:36:06;;;;;;;0.30;0.30;;;;;;;;;;5007008;28;20302;-55
2022/05/02 09:39:03;;;;;;;0.47;0.40;;;;;;;;;;5007326;28;20216;-55
2022/05/02 09:42:16;;;;;;;0.20;0.20;;;;;;;;;;5008007;28;20286;-55
2022/05/02 09:52:04;;;;;;;0.70;0.50;;;;;;;;;;5026566;28;20208;-55
2022/05/02 09:58:35;;;;;;;0.30;0.30;;;;;;;;;;5029592;28;20308;-56
2022/05/02 10:01:26;;;;;;;0.40;0.40;;;;;;;;;;5031753;28;20587;-56
2022/05/02 10:04:37;;;;;;;0.45;0.45;;;;;;;;;;5029471;28;20203;-55
2022/05/02 10:07:26;;;;;;;0.50;0.50;;;;;;;;;;5032453;28;20205;-54
2022/05/02 10:10:24;;;;;;;0.70;0.50;;;;;;;;;;5028978;28;20424;-55
2022/05/02 10:13:30;;;;;;;0.47;0.40;;;;;;;;;;5032033;28;20264;-56
2022/05/02 10:16:24;;;;;;;0.73;0.55;;;;;;;;;;5032467;28;20308;-55
2022/05/02 10:19:19;;;;;;;0.63;0.50;;;;;;;;;;5030394;28;20288;-55
2022/05/02 10:22:24;;;;;;;0.70;0.60;;;;;;;;;;5033684;28;20292;-55
2022/05/02 10:25:19;;;;;;;1.53;0.60;;;;;;;;;;5029069;28;20219;-55
2022/05/02 10:28:19;;;;;;;0.68;0.63;;;;;;;;;;5032225;28;20217;-56
2022/05/02 10:31:10;;;;;;;0.30;0.30;;;;;;;;;;5031699;28;20721;-56
2022/05/02 10:34:02;;;;;;;0.60;0.50;;;;;;;;;;5029621;28;20344;-55
2022/05/02 10:36:51;;;;;;;0.50;0.40;;;;;;;;;;5028342;28;20307;-55
2022/05/02 10:39:40;;;;;;;0.57;0.53;;;;;;;;;;5032385;28;20675;-55
2022/05/02 10:42:32;;;;;;;2.13;0.40;;;;;;;;;;5030897;28;20219;-55
2022/05/02 10:45:19;;;;;;;1.33;0.67;;;;;;;;;;5031081;28;20216;-55
2022/05/02 10:48:16;;;;;;;0.60;0.60;;;;;;;;;;5035077;28;20351;-55
2022/05/02 10:51:13;;;;;;;0.53;0.50;;;;;;;;;;5031791;28;20223;-56
2022/05/02 10:54:09;;;;;;;0.90;0.50;;;;;;;;;;5029961;28;20243;-55
2022/05/02 10:56:59;;;;;;;0.40;0.40;;;;;;;;;;5029418;28;20234;-56
2022/05/02 10:59:53;;;;;;;0.67;0.67;;;;;;;;;;5035086;28;20248;-55
2022/05/02 11:02:53;;;;;;;1.03;0.60;;;;;;;;;;5031665;28;20240;-55
2022/05/02 11:05:45;;;;;;;0.90;0.50;;;;;;;;;;5028038;28;20292;-56
2022/05/02 11:08:47;;;;;;;0.97;0.73;;;;;;;;;;5032822;28;20572;-56
2022/05/02 11:11:47;;;;;;;0.40;0.40;;;;;;;;;;5033701;28;20338;-55
2022/05/02 11:14:49;;;;;;;0.73;0.53;;;;;;;;;;5030003;28;20224;-56
2022/05/02 11:18:04;;;;;;;0.40;0.40;;;;;;;;;;5031752;28;20725;-55
2022/05/02 11:20:54;;;;;;;1.03;0.60;;;;;;;;;;5032767;28;20313;-56
2022/05/02 11:24:03;;;;;;;0.93;0.60;;;;;;;;;;5029857;28;20253;-56
2022/05/02 11:26:56;;;;;;;0.50;0.50;;;;;;;;;;5030605;28;20216;-56
2022/05/02 11:29:56;;;;;;;0.93;0.70;;;;;;;;;;5029580;28;20247;-55
2022/05/02 11:33:11;;;;;;;0.57;0.57;;;;;;;;;;5031709;28;20627;-56
2022/05/02 11:36:01;;;;;;;0.50;0.50;;;;;;;;;;5028271;28;20300;-56
2022/05/02 11:38:56;;;;;;;0.50;0.50;;;;;;;;;;5030463;28;20238;-56
2022/05/02 11:41:44;;;;;;;1.70;0.60;;;;;;;;;;5030699;28;20212;-55
2022/05/02 11:44:33;;;;;;;0.50;0.50;;;;;;;;;;5030183;28;20229;-56
2022/05/02 11:47:30;;;;;;;0.50;0.50;;;;;;;;;;5037017;28;20230;-56
2022/05/02 11:50:23;;;;;;;0.30;0.30;;;;;;;;;;5029963;28;20571;-55
2022/05/02 11:53:13;;;;;;;1.67;0.47;;;;;;;;;;5028714;28;20309;-57
2022/05/02 11:56:04;;;;;;;1.17;0.50;;;;;;;;;;5034094;28;20596;-56
2022/05/02 11:59:03;;;;;;;0.77;0.50;;;;;;;;;;5029687;28;20238;-55
2022/05/02 12:02:02;;;;;;;0.60;0.60;;;;;;;;;;5028601;28;20723;-55
2022/05/02 12:04:53;;;;;;;0.90;0.70;;;;;;;;;;5030794;28;20215;-56
2022/05/02 12:07:49;;;;;;;0.50;0.50;;;;;;;;;;5031725;28;20193;-56
2022/05/02 12:10:39;;;;;;;1.50;0.67;;;;;;;;;;5030765;28;20615;-56
2022/05/02 12:13:33;;;;;;;0.60;0.60;;;;;;;;;;5030055;28;20694;-56
2022/05/02 12:16:21;;;;;;;0.50;0.50;;;;;;;;;;5027378;28;20693;-57
2022/05/02 12:19:08;;;;;;;0.90;0.60;;;;;;;;;;5033935;28;20300;-57
2022/05/02 12:21:56;;;;;;;1.70;0.60;;;;;;;;;;5031402;28;20578;-56
2022/05/02 12:24:47;;;;;;;0.60;0.60;;;;;;;;;;5036772;28;20209;-56
2022/05/02 12:27:34;;;;;;;1.00;0.90;;;;;;;;;;5032079;28;20203;-56
2022/05/02 12:30:22;;;;;;;0.50;0.50;;;;;;;;;;5028376;28;20356;-56
2022/05/02 12:33:09;;;;;;;1.10;0.50;;;;;;;;;;5026883;28;20262;-57
2022/05/02 12:35:58;;;;;;;1.77;0.70;;;;;;;;;;5027413;28;20315;-56
2022/05/02 12:38:50;;;;;;;0.53;0.53;;;;;;;;;;5028751;28;20266;-56
2022/05/02 12:41:46;;;;;;;1.53;0.57;;;;;;;;;;5029012;28;20209;-56
2022/05/02 12:44:43;;;;;;;0.50;0.50;;;;;;;;;;5027901;28;20217;-56
2022/05/02 12:47:34;;;;;;;0.40;0.40;;;;;;;;;;5029614;28;20205;-56
2022/05/02 12:50:22;;;;;;;0.83;0.50;;;;;;;;;;5026908;28;20701;-56
2022/05/02 12:54:09;;;;;;;0.70;0.70;;;;;;;;;;5028591;28;20261;-57
2022/05/02 12:56:26;;;;;;;0.50;0.50;;;;;;;;;;5026829;28;20272;-56
2022/05/02 13:02:32;;;;;;;0.70;0.70;;;;;;;;;;5030820;28;20265;-56
2022/05/02 13:05:22;;;;;;;0.97;0.50;;;;;;;;;;5033709;28;20220;-56
2022/05/02 13:08:13;;;;;;;2.60;0.80;;;;;;;;;;5034492;28;20702;-56
2022/05/02 13:11:06;;;;;;;0.80;0.60;;;;;;;;;;5030942;28;20738;-56
2022/05/02 13:13:56;;;;;;;0.57;0.50;;;;;;;;;;5027453;28;20291;-57
2022/05/02 13:16:46;;;;;;;0.87;0.53;;;;;;;;;;5028035;28;20686;-55
2022/05/02 13:19:34;;;;;;;0.53;0.53;;;;;;;;;;5040725;28;21073;-56
2022/05/02 13:22:21;;;;;;;0.60;0.60;;;;;;;;;;5030733;28;20209;-56
2022/05/02 13:25:08;;;;;;;0.70;0.70;;;;;;;;;;5027998;28;20202;-55
2022/05/02 13:27:57;;;;;;;0.77;0.70;;;;;;;;;;5032053;28;20292;-56
2022/05/02 13:30:51;;;;;;;0.70;0.70;;;;;;;;;;5030116;28;20662;-56
2022/05/02 13:33:39;;;;;;;0.90;0.80;;;;;;;;;;5031436;28;20211;-56
2022/05/02 13:36:31;;;;;;;1.23;0.73;;;;;;;;;;5031894;28;20242;-56
2022/05/02 13:39:22;;;;;;;0.50;0.50;;;;;;;;;;5031216;28;20231;-56
2022/05/02 13:42:16;;;;;;;2.60;0.73;;;;;;;;;;5036079;28;20660;-56
2022/05/02 13:45:06;;;;;;;2.63;0.90;;;;;;;;;;5032259;28;20263;-55
2022/05/02 13:47:58;;;;;;;1.93;0.87;;;;;;;;;;5038158;28;20318;-57
2022/05/02 13:50:52;;;;;;;0.83;0.70;;;;;;;;;;5037056;28;20261;-56
2022/05/02 13:53:49;;;;;;;0.80;0.80;;;;;;;;;;5035194;28;20243;-56
2022/05/02 13:56:44;;;;;;;0.83;0.83;;;;;;;;;;5033692;28;20770;-56
2022/05/02 13:59:40;;;;;;;0.80;0.80;;;;;;;;;;5033040;28;20224;-56
2022/05/02 14:02:47;;;;;;;0.80;0.80;;;;;;;;;;5034939;28;20363;-55
2022/05/02 14:05:43;;;;;;;1.40;0.80;;;;;;;;;;5031747;28;20218;-56
2022/05/02 14:08:43;;;;;;;0.83;0.70;;;;;;;;;;5034349;28;20691;-56
2022/05/02 14:11:30;;;;;;;0.90;0.90;;;;;;;;;;5035838;28;20250;-56
2022/05/02 14:14:17;;;;;;;0.70;0.70;;;;;;;;;;5031898;28;20342;-57
2022/05/02 14:17:04;;;;;;;0.77;0.77;;;;;;;;;;5032980;28;20375;-56
2022/05/02 14:19:51;;;;;;;1.17;0.90;;;;;;;;;;5034240;28;20213;-57
2022/05/02 14:22:38;;;;;;;1.03;1.00;;;;;;;;;;5034193;28;20212;-56
2022/05/02 14:25:32;;;;;;;0.70;0.70;;;;;;;;;;5032920;28;20246;-55
2022/05/02 14:28:20;;;;;;;1.30;1.20;;;;;;;;;;5030703;28;20215;-56
2022/05/02 14:31:07;;;;;;;1.10;0.83;;;;;;;;;;5039895;28;20693;-56
2022/05/02 14:34:05;;;;;;;1.00;0.90;;;;;;;;;;5038333;28;20222;-56
2022/05/02 14:36:52;;;;;;;0.70;0.70;;;;;;;;;;5031111;28;20690;-56
2022/05/02 14:39:42;;;;;;;0.90;0.90;;;;;;;;;;5034211;28;20329;-56
2022/05/02 14:42:31;;;;;;;0.80;0.80;;;;;;;;;;5030318;28;20242;-56
2022/05/02 14:45:19;;;;;;;0.80;0.80;;;;;;;;;;5029034;28;20207;-56
2022/05/02 14:48:09;;;;;;;0.90;0.90;;;;;;;;;;5031241;28;20370;-56
2022/05/02 14:51:06;;;;;;;1.10;0.80;;;;;;;;;;5036498;28;20753;-56
2022/05/02 14:53:57;;;;;;;0.93;0.93;;;;;;;;;;5033313;28;20357;-58
2022/05/02 14:56:45;;;;;;;0.63;0.63;;;;;;;;;;5030776;28;20226;-57
2022/05/02 14:59:35;;;;;;;0.67;0.67;;;;;;;;;;5036929;28;20236;-56
2022/05/02 15:02:25;;;;;;;0.80;0.80;;;;;;;;;;5032115;28;20290;-56
2022/05/02 15:05:16;;;;;;;1.00;1.00;;;;;;;;;;5035029;28;20207;-57
2022/05/02 15:08:19;;;;;;;0.80;0.80;;;;;;;;;;5031745;28;20424;-56
2022/05/02 15:11:07;;;;;;;0.77;0.77;;;;;;;;;;5030350;28;20250;-56
2022/05/02 15:14:17;;;;;;;0.73;0.73;;;;;;;;;;5032066;28;20222;-57
2022/05/02 15:17:22;;;;;;;1.17;1.10;;;;;;;;;;5031970;28;20317;-56
2022/05/02 15:20:22;;;;;;;1.13;0.73;;;;;;;;;;5035409;28;20227;-57
2022/05/02 15:23:11;;;;;;;0.90;0.90;;;;;;;;;;5032100;28;20209;-56
2022/05/02 15:25:58;;;;;;;1.23;1.13;;;;;;;;;;5034465;28;20300;-56
2022/05/02 15:38:57;;;;;;;1.17;1.17;;;;;;;;;;5028869;28;20225;-57
2022/05/02 15:42:09;;;;;;;1.20;1.20;;;;;;;;;;5029982;28;20215;-57
2022/05/02 15:44:56;;;;;;;1.07;1.00;;;;;;;;;;5031393;28;20287;-57
2022/05/02 15:47:44;;;;;;;1.20;1.20;;;;;;;;;;5028379;28;20251;-57
2022/05/02 15:50:31;;;;;;;1.20;1.20;;;;;;;;;;5030579;28;20248;-57
2022/05/02 15:53:22;;;;;;;1.20;1.20;;;;;;;;;;5031186;28;20300;-56
2022/05/02 15:56:13;;;;;;;1.30;1.30;;;;;;;;;;5030264;28;20291;-57
2022/05/02 15:59:02;;;;;;;1.33;1.23;;;;;;;;;;5031979;28;20276;-56
2022/05/02 16:01:56;;;;;;;1.17;1.13;;;;;;;;;;5032566;28;20205;-57
2022/05/02 16:04:51;;;;;;;1.30;1.20;;;;;;;;;;5031543;28;20287;-56
2022/05/02 16:10:59;;;;;;;1.50;1.40;;;;;;;;;;5038972;28;20222;-57
2022/05/02 16:13:48;;;;;;;1.27;1.27;;;;;;;;;;5030354;28;20205;-56
2022/05/02 16:16:44;;;;;;;1.47;1.37;;;;;;;;;;5030676;28;20860;-57
2022/05/02 16:19:31;;;;;;;1.67;1.57;;;;;;;;;;5029914;28;20228;-56
2022/05/02 16:22:20;;;;;;;1.30;1.20;;;;;;;;;;5030047;28;20279;-57
2022/05/02 16:25:13;;;;;;;1.20;1.20;;;;;;;;;;5034596;28;20274;-56
2022/05/02 16:28:01;;;;;;;2.30;1.60;;;;;;;;;;5031789;28;20208;-57
2022/05/02 16:30:50;;;;;;;2.10;1.57;;;;;;;;;;5031238;28;20740;-59
2022/05/02 16:33:38;;;;;;;1.50;1.50;;;;;;;;;;5033366;28;20291;-56
2022/05/02 16:36:26;;;;;;;1.67;1.57;;;;;;;;;;5031667;28;20210;-56
2022/05/02 16:39:15;;;;;;;1.50;1.50;;;;;;;;;;5029948;28;20767;-57
2022/05/02 16:42:02;;;;;;;1.83;1.73;;;;;;;;;;5033853;28;20200;-56
2022/05/02 16:44:49;;;;;;;1.80;1.70;;;;;;;;;;5032208;28;20336;-56
2022/05/02 16:47:38;;;;;;;1.80;1.70;;;;;;;;;;5028211;28;20336;-56
2022/05/02 16:50:33;;;;;;;2.07;1.97;;;;;;;;;;5027003;28;20217;-56
2022/05/02 16:53:21;;;;;;;2.10;1.90;;;;;;;;;;5028600;28;20261;-57
2022/05/02 16:56:09;;;;;;;1.90;1.80;;;;;;;;;;5036225;28;20222;-56
2022/05/02 16:58:58;;;;;;;1.67;1.57;;;;;;;;;;5030496;28;20390;-56
2022/05/02 17:01:45;;;;;;;2.10;1.90;;;;;;;;;;5028653;28;20212;-57
2022/05/02 17:04:32;;;;;;;2.23;2.03;;;;;;;;;;5031364;28;20320;-57
2022/05/02 17:07:19;;;;;;;1.93;1.83;;;;;;;;;;5029444;28;20230;-57
2022/05/02 17:10:07;;;;;;;1.97;1.87;;;;;;;;;;5030151;28;20210;-56
2022/05/02 17:12:56;;;;;;;1.97;1.87;;;;;;;;;;5028806;28;20749;-56
2022/05/02 17:15:45;;;;;;;2.33;2.20;;;;;;;;;;5028530;28;20209;-56
2022/05/02 17:18:36;;;;;;;2.27;2.17;;;;;;;;;;5027799;28;20229;-56
2022/05/02 17:21:24;;;;;;;2.33;2.10;;;;;;;;;;5030599;28;20290;-57
2022/05/02 17:24:11;;;;;;;2.53;2.33;;;;;;;;;;5028655;28;20277;-56
2022/05/02 17:27:04;;;;;;;2.10;2.00;;;;;;;;;;5029944;28;20293;-56
2022/05/02 17:29:54;;;;;;;2.50;2.30;;;;;;;;;;5028104;28;20212;-57
2022/05/02 17:32:44;;;;;;;2.13;2.03;;;;;;;;;;5030233;28;20207;-56
2022/05/02 17:35:32;;;;;;;1.97;1.87;;;;;;;;;;5028928;28;20222;-56
2022/05/02 17:38:19;;;;;;;2.10;2.00;;;;;;;;;;5028163;28;20221;-57
2022/05/02 17:41:11;;;;;;;2.30;2.20;;;;;;;;;;5030241;28;20644;-56
2022/05/02 17:43:58;;;;;;;2.40;2.20;;;;;;;;;;5028332;28;20222;-56
2022/05/02 17:46:46;;;;;;;2.27;2.07;;;;;;;;;;5027607;28;20223;-56
2022/05/02 17:49:36;;;;;;;2.20;2.10;;;;;;;;;;5017133;28;20632;-57
2022/05/02 17:52:25;;;;;;;2.33;2.17;;;;;;;;;;5014388;28;20238;-56
2022/05/02 17:55:12;;;;;;;2.27;2.13;;;;;;;;;;5016583;28;20551;-57
2022/05/02 17:58:02;;;;;;;2.30;2.20;;;;;;;;;;5015021;28;20243;-56
2022/05/02 18:01:00;;;;;;;2.20;2.10;;;;;;;;;;5021569;28;20214;-57